sensor_id;sensor_type;location;lat;lon;timestamp;P1;durP1;ratioP1;P2;durP2;ratioP2
19137;SDS011;68178;52.188;5.598;2023-08-12T00:01:36;7.65;;;6.80;;
19137;SDS011;68178;52.188;5.598;2023-08-12T00:04:02;9.77;;;6.95;;
19137;SDS011;68178;52.188;5.598;2023-08-12T00:06:28;8.35;;;6.65;;
19137;SDS011;68178;52.188;5.598;2023-08-12T00:08:53;10.50;;;6.47;;
19137;SDS011;68178;52.188;5.598;2023-08-12T00:11:19;10.65;;;6.82;;
19137;SDS011;68178;52.188;5.598;2023-08-12T00:13:45;10.18;;;6.63;;
19137;SDS011;68178;52.188;5.598;2023-08-12T00:16:10;9.00;;;6.63;;
19137;SDS011;68178;52.188;5.598;2023-08-12T00:18:36;10.45;;;7.53;;
19137;SDS011;68178;52.188;5.598;2023-08-12T00:21:08;11.77;;;7.57;;
19137;SDS011;68178;52.188;5.598;2023-08-12T00:23:38;8.57;;;7.00;;
19137;SDS011;68178;52.188;5.598;2023-08-12T00:26:05;10.85;;;8.02;;
19137;SDS011;68178;52.188;5.598;2023-08-12T00:28:32;9.52;;;7.50;;
19137;SDS011;68178;52.188;5.598;2023-08-12T00:30:58;9.80;;;8.25;;
19137;SDS011;68178;52.188;5.598;2023-08-12T00:33:23;9.23;;;7.07;;
19137;SDS011;68178;52.188;5.598;2023-08-12T00:35:49;15.45;;;9.45;;
19137;SDS011;68178;52.188;5.598;2023-08-12T00:38:14;11.20;;;8.15;;
19137;SDS011;68178;52.188;5.598;2023-08-12T00:40:40;16.63;;;9.80;;
19137;SDS011;68178;52.188;5.598;2023-08-12T00:43:06;16.10;;;10.00;;
19137;SDS011;68178;52.188;5.598;2023-08-12T00:45:31;12.45;;;9.93;;
19137;SDS011;68178;52.188;5.598;2023-08-12T00:47:58;13.32;;;9.57;;
19137;SDS011;68178;52.188;5.598;2023-08-12T00:50:24;12.75;;;9.55;;
19137;SDS011;68178;52.188;5.598;2023-08-12T00:52:50;13.07;;;9.43;;
19137;SDS011;68178;52.188;5.598;2023-08-12T00:55:16;14.13;;;9.98;;
19137;SDS011;68178;52.188;5.598;2023-08-12T00:57:43;12.43;;;10.00;;
19137;SDS011;68178;52.188;5.598;2023-08-12T01:00:08;13.23;;;10.57;;
19137;SDS011;68178;52.188;5.598;2023-08-12T01:02:34;13.30;;;9.75;;
19137;SDS011;68178;52.188;5.598;2023-08-12T01:05:00;13.55;;;9.90;;
19137;SDS011;68178;52.188;5.598;2023-08-12T01:07:26;14.48;;;11.77;;
19137;SDS011;68178;52.188;5.598;2023-08-12T01:09:51;17.88;;;11.57;;
19137;SDS011;68178;52.188;5.598;2023-08-12T01:12:19;19.33;;;13.00;;
19137;SDS011;68178;52.188;5.598;2023-08-12T01:17:34;13.88;;;11.40;;
19137;SDS011;68178;52.188;5.598;2023-08-12T01:20:02;18.00;;;12.40;;
19137;SDS011;68178;52.188;5.598;2023-08-12T01:22:37;17.40;;;12.48;;
19137;SDS011;68178;52.188;5.598;2023-08-12T01:25:05;18.58;;;12.25;;
19137;SDS011;68178;52.188;5.598;2023-08-12T01:27:31;16.08;;;12.82;;
19137;SDS011;68178;52.188;5.598;2023-08-12T01:29:58;16.92;;;12.40;;
19137;SDS011;68178;52.188;5.598;2023-08-12T01:35:16;18.17;;;13.07;;
19137;SDS011;68178;52.188;5.598;2023-08-12T01:37:48;14.82;;;13.02;;
19137;SDS011;68178;52.188;5.598;2023-08-12T01:40:16;16.27;;;12.05;;
19137;SDS011;68178;52.188;5.598;2023-08-12T01:42:43;15.60;;;13.13;;
19137;SDS011;68178;52.188;5.598;2023-08-12T01:45:10;18.55;;;14.75;;
19137;SDS011;68178;52.188;5.598;2023-08-12T01:47:36;20.92;;;13.95;;
19137;SDS011;68178;52.188;5.598;2023-08-12T01:50:02;16.15;;;14.00;;
19137;SDS011;68178;52.188;5.598;2023-08-12T01:52:28;19.80;;;14.23;;
19137;SDS011;68178;52.188;5.598;2023-08-12T01:54:54;17.30;;;13.35;;
19137;SDS011;68178;52.188;5.598;2023-08-12T01:57:19;16.45;;;13.85;;
19137;SDS011;68178;52.188;5.598;2023-08-12T01:59:45;14.93;;;12.85;;
19137;SDS011;68178;52.188;5.598;2023-08-12T02:02:11;22.30;;;15.68;;
19137;SDS011;68178;52.188;5.598;2023-08-12T02:04:37;21.52;;;15.57;;
19137;SDS011;68178;52.188;5.598;2023-08-12T02:07:03;21.20;;;14.38;;
19137;SDS011;68178;52.188;5.598;2023-08-12T02:09:29;19.52;;;15.68;;
19137;SDS011;68178;52.188;5.598;2023-08-12T02:11:55;20.13;;;15.70;;
19137;SDS011;68178;52.188;5.598;2023-08-12T02:14:21;18.50;;;14.73;;
19137;SDS011;68178;52.188;5.598;2023-08-12T02:16:47;21.27;;;15.10;;
19137;SDS011;68178;52.188;5.598;2023-08-12T02:19:12;21.83;;;14.68;;
19137;SDS011;68178;52.188;5.598;2023-08-12T02:21:38;18.98;;;14.95;;
19137;SDS011;68178;52.188;5.598;2023-08-12T02:24:03;22.73;;;15.38;;
19137;SDS011;68178;52.188;5.598;2023-08-12T02:26:29;18.08;;;14.95;;
19137;SDS011;68178;52.188;5.598;2023-08-12T02:28:55;18.25;;;15.02;;
19137;SDS011;68178;52.188;5.598;2023-08-12T02:31:21;17.75;;;13.88;;
19137;SDS011;68178;52.188;5.598;2023-08-12T02:33:46;20.65;;;15.25;;
19137;SDS011;68178;52.188;5.598;2023-08-12T02:36:12;21.90;;;15.32;;
19137;SDS011;68178;52.188;5.598;2023-08-12T02:38:37;20.02;;;14.43;;
19137;SDS011;68178;52.188;5.598;2023-08-12T02:41:03;21.00;;;14.35;;
19137;SDS011;68178;52.188;5.598;2023-08-12T02:43:29;23.88;;;14.57;;
19137;SDS011;68178;52.188;5.598;2023-08-12T02:45:54;19.67;;;14.80;;
19137;SDS011;68178;52.188;5.598;2023-08-12T02:48:20;18.58;;;15.65;;
19137;SDS011;68178;52.188;5.598;2023-08-12T02:50:46;23.50;;;15.40;;
19137;SDS011;68178;52.188;5.598;2023-08-12T02:53:12;23.83;;;16.55;;
19137;SDS011;68178;52.188;5.598;2023-08-12T02:55:37;23.13;;;15.80;;
19137;SDS011;68178;52.188;5.598;2023-08-12T02:58:03;23.42;;;16.42;;
19137;SDS011;68178;52.188;5.598;2023-08-12T03:00:29;26.30;;;17.25;;
19137;SDS011;68178;52.188;5.598;2023-08-12T03:02:55;28.52;;;17.05;;
19137;SDS011;68178;52.188;5.598;2023-08-12T03:05:23;23.55;;;17.15;;
19137;SDS011;68178;52.188;5.598;2023-08-12T03:07:49;22.27;;;17.15;;
19137;SDS011;68178;52.188;5.598;2023-08-12T03:10:16;21.60;;;16.95;;
19137;SDS011;68178;52.188;5.598;2023-08-12T03:12:42;23.63;;;17.77;;
19137;SDS011;68178;52.188;5.598;2023-08-12T03:15:07;21.17;;;18.23;;
19137;SDS011;68178;52.188;5.598;2023-08-12T03:17:33;30.65;;;19.73;;
19137;SDS011;68178;52.188;5.598;2023-08-12T03:19:59;23.83;;;18.58;;
19137;SDS011;68178;52.188;5.598;2023-08-12T03:22:30;23.42;;;18.98;;
19137;SDS011;68178;52.188;5.598;2023-08-12T03:24:55;25.90;;;19.92;;
19137;SDS011;68178;52.188;5.598;2023-08-12T03:27:21;26.40;;;20.05;;
19137;SDS011;68178;52.188;5.598;2023-08-12T03:29:46;27.70;;;20.27;;
19137;SDS011;68178;52.188;5.598;2023-08-12T03:32:12;30.00;;;20.90;;
19137;SDS011;68178;52.188;5.598;2023-08-12T03:34:38;24.90;;;20.95;;
19137;SDS011;68178;52.188;5.598;2023-08-12T03:37:03;28.02;;;20.48;;
19137;SDS011;68178;52.188;5.598;2023-08-12T03:39:29;28.58;;;22.05;;
19137;SDS011;68178;52.188;5.598;2023-08-12T03:41:55;27.77;;;20.17;;
19137;SDS011;68178;52.188;5.598;2023-08-12T03:44:20;29.20;;;21.25;;
19137;SDS011;68178;52.188;5.598;2023-08-12T03:46:46;28.67;;;21.83;;
19137;SDS011;68178;52.188;5.598;2023-08-12T03:49:12;27.67;;;21.80;;
19137;SDS011;68178;52.188;5.598;2023-08-12T03:51:37;28.30;;;22.35;;
19137;SDS011;68178;52.188;5.598;2023-08-12T03:54:03;27.70;;;21.42;;
19137;SDS011;68178;52.188;5.598;2023-08-12T03:56:29;36.08;;;23.65;;
19137;SDS011;68178;52.188;5.598;2023-08-12T03:58:54;31.35;;;24.25;;
19137;SDS011;68178;52.188;5.598;2023-08-12T04:01:20;27.45;;;23.25;;
19137;SDS011;68178;52.188;5.598;2023-08-12T04:03:46;30.65;;;23.05;;
19137;SDS011;68178;52.188;5.598;2023-08-12T04:06:12;31.35;;;23.13;;
19137;SDS011;68178;52.188;5.598;2023-08-12T04:08:37;30.85;;;23.48;;
19137;SDS011;68178;52.188;5.598;2023-08-12T04:11:03;31.20;;;23.98;;
19137;SDS011;68178;52.188;5.598;2023-08-12T04:13:29;32.35;;;23.20;;
19137;SDS011;68178;52.188;5.598;2023-08-12T04:15:55;30.15;;;22.85;;
19137;SDS011;68178;52.188;5.598;2023-08-12T04:18:20;28.40;;;22.13;;
19137;SDS011;68178;52.188;5.598;2023-08-12T04:20:47;25.10;;;21.92;;
19137;SDS011;68178;52.188;5.598;2023-08-12T04:23:14;30.80;;;24.65;;
19137;SDS011;68178;52.188;5.598;2023-08-12T04:25:39;27.90;;;24.50;;
19137;SDS011;68178;52.188;5.598;2023-08-12T04:28:07;30.67;;;23.85;;
19137;SDS011;68178;52.188;5.598;2023-08-12T04:30:33;32.22;;;25.27;;
19137;SDS011;68178;52.188;5.598;2023-08-12T04:32:59;31.98;;;25.33;;
19137;SDS011;68178;52.188;5.598;2023-08-12T04:35:24;39.75;;;26.25;;
19137;SDS011;68178;52.188;5.598;2023-08-12T04:37:50;30.83;;;25.33;;
19137;SDS011;68178;52.188;5.598;2023-08-12T04:40:15;31.23;;;25.77;;
19137;SDS011;68178;52.188;5.598;2023-08-12T04:42:41;30.42;;;26.00;;
19137;SDS011;68178;52.188;5.598;2023-08-12T04:45:07;31.42;;;25.27;;
19137;SDS011;68178;52.188;5.598;2023-08-12T04:47:33;37.13;;;26.67;;
19137;SDS011;68178;52.188;5.598;2023-08-12T04:49:59;33.90;;;25.75;;
19137;SDS011;68178;52.188;5.598;2023-08-12T04:52:24;33.30;;;26.70;;
19137;SDS011;68178;52.188;5.598;2023-08-12T04:54:52;31.23;;;25.67;;
19137;SDS011;68178;52.188;5.598;2023-08-12T04:57:18;28.45;;;25.35;;
19137;SDS011;68178;52.188;5.598;2023-08-12T04:59:44;36.80;;;25.58;;
19137;SDS011;68178;52.188;5.598;2023-08-12T05:02:09;32.15;;;24.15;;
19137;SDS011;68178;52.188;5.598;2023-08-12T05:04:35;29.55;;;24.60;;
19137;SDS011;68178;52.188;5.598;2023-08-12T05:07:00;29.13;;;24.80;;
19137;SDS011;68178;52.188;5.598;2023-08-12T05:09:26;35.33;;;25.52;;
19137;SDS011;68178;52.188;5.598;2023-08-12T05:11:52;30.70;;;23.42;;
19137;SDS011;68178;52.188;5.598;2023-08-12T05:14:17;29.33;;;23.33;;
19137;SDS011;68178;52.188;5.598;2023-08-12T05:16:43;32.22;;;24.63;;
19137;SDS011;68178;52.188;5.598;2023-08-12T05:19:08;32.13;;;23.33;;
19137;SDS011;68178;52.188;5.598;2023-08-12T05:21:34;32.67;;;24.65;;
19137;SDS011;68178;52.188;5.598;2023-08-12T05:23:59;32.45;;;25.00;;
19137;SDS011;68178;52.188;5.598;2023-08-12T05:26:25;28.85;;;22.85;;
19137;SDS011;68178;52.188;5.598;2023-08-12T05:28:51;28.63;;;23.63;;
19137;SDS011;68178;52.188;5.598;2023-08-12T05:31:16;32.10;;;23.77;;
19137;SDS011;68178;52.188;5.598;2023-08-12T05:33:42;32.47;;;24.00;;
19137;SDS011;68178;52.188;5.598;2023-08-12T05:36:07;33.92;;;23.70;;
19137;SDS011;68178;52.188;5.598;2023-08-12T05:38:34;32.45;;;24.08;;
19137;SDS011;68178;52.188;5.598;2023-08-12T05:40:59;30.98;;;23.05;;
19137;SDS011;68178;52.188;5.598;2023-08-12T05:43:25;28.60;;;23.55;;
19137;SDS011;68178;52.188;5.598;2023-08-12T05:45:51;29.17;;;23.33;;
19137;SDS011;68178;52.188;5.598;2023-08-12T05:48:16;28.25;;;22.75;;
19137;SDS011;68178;52.188;5.598;2023-08-12T05:50:42;29.92;;;23.63;;
19137;SDS011;68178;52.188;5.598;2023-08-12T05:53:08;30.23;;;23.42;;
19137;SDS011;68178;52.188;5.598;2023-08-12T05:55:34;30.67;;;22.67;;
19137;SDS011;68178;52.188;5.598;2023-08-12T05:58:00;27.98;;;22.55;;
19137;SDS011;68178;52.188;5.598;2023-08-12T06:00:25;27.15;;;22.75;;
19137;SDS011;68178;52.188;5.598;2023-08-12T06:02:51;29.52;;;23.25;;
19137;SDS011;68178;52.188;5.598;2023-08-12T06:05:17;26.70;;;22.35;;
19137;SDS011;68178;52.188;5.598;2023-08-12T06:07:43;29.00;;;22.17;;
19137;SDS011;68178;52.188;5.598;2023-08-12T06:10:08;28.50;;;21.92;;
19137;SDS011;68178;52.188;5.598;2023-08-12T06:12:34;28.23;;;22.48;;
19137;SDS011;68178;52.188;5.598;2023-08-12T06:15:00;26.40;;;22.50;;
19137;SDS011;68178;52.188;5.598;2023-08-12T06:17:26;25.17;;;21.98;;
19137;SDS011;68178;52.188;5.598;2023-08-12T06:19:51;25.08;;;21.38;;
19137;SDS011;68178;52.188;5.598;2023-08-12T06:22:17;22.55;;;19.92;;
19137;SDS011;68178;52.188;5.598;2023-08-12T06:24:42;22.92;;;18.92;;
19137;SDS011;68178;52.188;5.598;2023-08-12T06:27:08;19.50;;;15.93;;
19137;SDS011;68178;52.188;5.598;2023-08-12T06:29:34;19.67;;;14.38;;
19137;SDS011;68178;52.188;5.598;2023-08-12T06:31:59;15.48;;;11.77;;
19137;SDS011;68178;52.188;5.598;2023-08-12T06:34:25;15.07;;;11.88;;
19137;SDS011;68178;52.188;5.598;2023-08-12T06:36:50;17.25;;;11.88;;
19137;SDS011;68178;52.188;5.598;2023-08-12T06:39:16;16.33;;;12.82;;
19137;SDS011;68178;52.188;5.598;2023-08-12T06:41:42;12.48;;;11.18;;
19137;SDS011;68178;52.188;5.598;2023-08-12T06:44:07;12.98;;;10.70;;
19137;SDS011;68178;52.188;5.598;2023-08-12T06:46:36;14.05;;;11.00;;
19137;SDS011;68178;52.188;5.598;2023-08-12T06:49:02;13.20;;;10.68;;
19137;SDS011;68178;52.188;5.598;2023-08-12T06:51:27;12.07;;;10.85;;
19137;SDS011;68178;52.188;5.598;2023-08-12T06:53:53;17.15;;;11.70;;
19137;SDS011;68178;52.188;5.598;2023-08-12T06:56:18;17.15;;;11.70;;
19137;SDS011;68178;52.188;5.598;2023-08-12T06:58:44;12.63;;;10.95;;
19137;SDS011;68178;52.188;5.598;2023-08-12T07:01:09;14.20;;;11.65;;
19137;SDS011;68178;52.188;5.598;2023-08-12T07:03:35;17.70;;;12.20;;
19137;SDS011;68178;52.188;5.598;2023-08-12T07:06:01;17.38;;;12.48;;
19137;SDS011;68178;52.188;5.598;2023-08-12T07:08:26;16.15;;;12.15;;
19137;SDS011;68178;52.188;5.598;2023-08-12T07:10:52;13.40;;;12.07;;
19137;SDS011;68178;52.188;5.598;2023-08-12T07:13:18;13.30;;;11.98;;
19137;SDS011;68178;52.188;5.598;2023-08-12T07:15:43;18.23;;;13.70;;
19137;SDS011;68178;52.188;5.598;2023-08-12T07:18:09;15.40;;;13.13;;
19137;SDS011;68178;52.188;5.598;2023-08-12T07:20:35;15.18;;;13.23;;
19137;SDS011;68178;52.188;5.598;2023-08-12T07:23:00;15.95;;;14.25;;
19137;SDS011;68178;52.188;5.598;2023-08-12T07:25:26;18.30;;;15.45;;
19137;SDS011;68178;52.188;5.598;2023-08-12T07:27:51;16.95;;;14.80;;
19137;SDS011;68178;52.188;5.598;2023-08-12T07:30:17;15.80;;;14.20;;
19137;SDS011;68178;52.188;5.598;2023-08-12T07:32:43;15.35;;;13.80;;
19137;SDS011;68178;52.188;5.598;2023-08-12T07:35:08;17.75;;;14.50;;
19137;SDS011;68178;52.188;5.598;2023-08-12T07:37:34;18.95;;;16.15;;
19137;SDS011;68178;52.188;5.598;2023-08-12T07:39:59;19.90;;;15.30;;
19137;SDS011;68178;52.188;5.598;2023-08-12T07:42:26;20.98;;;17.13;;
19137;SDS011;68178;52.188;5.598;2023-08-12T07:44:51;19.55;;;16.90;;
19137;SDS011;68178;52.188;5.598;2023-08-12T07:47:17;14.02;;;12.65;;
19137;SDS011;68178;52.188;5.598;2023-08-12T07:49:43;13.45;;;12.18;;
19137;SDS011;68178;52.188;5.598;2023-08-12T07:52:09;13.35;;;12.05;;
19137;SDS011;68178;52.188;5.598;2023-08-12T07:54:35;11.73;;;10.63;;
19137;SDS011;68178;52.188;5.598;2023-08-12T07:57:01;10.05;;;8.23;;
19137;SDS011;68178;52.188;5.598;2023-08-12T07:59:26;8.40;;;7.43;;
19137;SDS011;68178;52.188;5.598;2023-08-12T08:01:52;8.07;;;6.95;;
19137;SDS011;68178;52.188;5.598;2023-08-12T08:04:18;7.78;;;6.97;;
19137;SDS011;68178;52.188;5.598;2023-08-12T08:06:43;8.57;;;7.68;;
19137;SDS011;68178;52.188;5.598;2023-08-12T08:09:09;9.25;;;8.15;;
19137;SDS011;68178;52.188;5.598;2023-08-12T08:11:35;8.75;;;7.95;;
19137;SDS011;68178;52.188;5.598;2023-08-12T08:14:01;10.40;;;8.50;;
19137;SDS011;68178;52.188;5.598;2023-08-12T08:16:27;11.88;;;9.13;;
19137;SDS011;68178;52.188;5.598;2023-08-12T08:18:52;11.70;;;9.70;;
19137;SDS011;68178;52.188;5.598;2023-08-12T08:21:18;10.73;;;9.55;;
19137;SDS011;68178;52.188;5.598;2023-08-12T08:23:43;11.43;;;9.30;;
19137;SDS011;68178;52.188;5.598;2023-08-12T08:26:09;10.65;;;9.60;;
19137;SDS011;68178;52.188;5.598;2023-08-12T08:28:35;10.38;;;9.32;;
19137;SDS011;68178;52.188;5.598;2023-08-12T08:31:00;9.82;;;8.93;;
19137;SDS011;68178;52.188;5.598;2023-08-12T08:33:26;10.85;;;9.15;;
19137;SDS011;68178;52.188;5.598;2023-08-12T08:35:53;8.57;;;7.88;;
19137;SDS011;68178;52.188;5.598;2023-08-12T08:38:19;8.63;;;7.28;;
19137;SDS011;68178;52.188;5.598;2023-08-12T08:40:45;8.18;;;6.95;;
19137;SDS011;68178;52.188;5.598;2023-08-12T08:43:10;8.68;;;7.20;;
19137;SDS011;68178;52.188;5.598;2023-08-12T08:45:40;7.35;;;6.75;;
19137;SDS011;68178;52.188;5.598;2023-08-12T08:48:08;7.03;;;6.45;;
19137;SDS011;68178;52.188;5.598;2023-08-12T08:50:36;7.13;;;6.45;;
19137;SDS011;68178;52.188;5.598;2023-08-12T08:53:02;7.15;;;6.45;;
19137;SDS011;68178;52.188;5.598;2023-08-12T08:55:31;7.78;;;7.00;;
19137;SDS011;68178;52.188;5.598;2023-08-12T08:57:57;8.93;;;8.23;;
19137;SDS011;68178;52.188;5.598;2023-08-12T09:00:23;10.23;;;8.88;;
19137;SDS011;68178;52.188;5.598;2023-08-12T09:02:49;9.50;;;8.60;;
19137;SDS011;68178;52.188;5.598;2023-08-12T09:05:16;9.82;;;8.93;;
19137;SDS011;68178;52.188;5.598;2023-08-12T09:07:43;8.38;;;7.65;;
19137;SDS011;68178;52.188;5.598;2023-08-12T09:10:10;7.32;;;6.65;;
19137;SDS011;68178;52.188;5.598;2023-08-12T09:12:37;7.15;;;6.55;;
19137;SDS011;68178;52.188;5.598;2023-08-12T09:15:03;7.07;;;6.47;;
19137;SDS011;68178;52.188;5.598;2023-08-12T09:17:32;7.53;;;6.82;;
19137;SDS011;68178;52.188;5.598;2023-08-12T09:19:58;6.85;;;6.35;;
19137;SDS011;68178;52.188;5.598;2023-08-12T09:22:24;6.32;;;5.50;;
19137;SDS011;68178;52.188;5.598;2023-08-12T09:24:57;6.95;;;6.35;;
19137;SDS011;68178;52.188;5.598;2023-08-12T09:27:23;6.07;;;5.63;;
19137;SDS011;68178;52.188;5.598;2023-08-12T09:29:49;3.67;;;3.38;;
19137;SDS011;68178;52.188;5.598;2023-08-12T09:32:18;2.70;;;2.50;;
19137;SDS011;68178;52.188;5.598;2023-08-12T09:34:45;2.25;;;2.10;;
19137;SDS011;68178;52.188;5.598;2023-08-12T09:37:12;3.17;;;2.50;;
19137;SDS011;68178;52.188;5.598;2023-08-12T09:39:39;4.13;;;2.30;;
19137;SDS011;68178;52.188;5.598;2023-08-12T09:42:05;5.32;;;2.60;;
19137;SDS011;68178;52.188;5.598;2023-08-12T09:44:34;6.10;;;2.80;;
19137;SDS011;68178;52.188;5.598;2023-08-12T09:47:00;5.65;;;2.33;;
19137;SDS011;68178;52.188;5.598;2023-08-12T09:49:26;4.45;;;3.08;;
19137;SDS011;68178;52.188;5.598;2023-08-12T09:51:53;3.85;;;2.70;;
19137;SDS011;68178;52.188;5.598;2023-08-12T09:54:18;6.22;;;2.60;;
19137;SDS011;68178;52.188;5.598;2023-08-12T09:56:46;4.95;;;2.72;;
19137;SDS011;68178;52.188;5.598;2023-08-12T09:59:15;8.43;;;2.45;;
19137;SDS011;68178;52.188;5.598;2023-08-12T10:01:47;5.45;;;2.70;;
19137;SDS011;68178;52.188;5.598;2023-08-12T10:04:14;5.13;;;2.72;;
19137;SDS011;68178;52.188;5.598;2023-08-12T10:06:41;7.70;;;3.00;;
19137;SDS011;68178;52.188;5.598;2023-08-12T10:09:08;10.45;;;3.47;;
19137;SDS011;68178;52.188;5.598;2023-08-12T10:11:34;6.20;;;3.10;;
19137;SDS011;68178;52.188;5.598;2023-08-12T10:14:01;7.00;;;2.97;;
19137;SDS011;68178;52.188;5.598;2023-08-12T10:16:29;7.88;;;2.33;;
19137;SDS011;68178;52.188;5.598;2023-08-12T10:18:55;7.20;;;2.67;;
19137;SDS011;68178;52.188;5.598;2023-08-12T10:21:22;9.15;;;3.38;;
19137;SDS011;68178;52.188;5.598;2023-08-12T10:23:50;8.98;;;3.90;;
19137;SDS011;68178;52.188;5.598;2023-08-12T10:26:16;8.52;;;4.30;;
19137;SDS011;68178;52.188;5.598;2023-08-12T10:28:43;10.85;;;4.13;;
19137;SDS011;68178;52.188;5.598;2023-08-12T10:31:10;8.80;;;4.63;;
19137;SDS011;68178;52.188;5.598;2023-08-12T10:33:40;8.27;;;4.57;;
19137;SDS011;68178;52.188;5.598;2023-08-12T10:36:06;5.53;;;2.88;;
19137;SDS011;68178;52.188;5.598;2023-08-12T10:38:33;8.52;;;3.65;;
19137;SDS011;68178;52.188;5.598;2023-08-12T10:43:58;11.65;;;3.90;;
19137;SDS011;68178;52.188;5.598;2023-08-12T10:48:59;7.85;;;2.60;;
19137;SDS011;68178;52.188;5.598;2023-08-12T10:54:22;10.30;;;3.22;;
19137;SDS011;68178;52.188;5.598;2023-08-12T10:57:12;7.40;;;3.45;;
19137;SDS011;68178;52.188;5.598;2023-08-12T10:59:46;8.15;;;3.40;;
19137;SDS011;68178;52.188;5.598;2023-08-12T11:02:32;6.25;;;2.80;;
19137;SDS011;68178;52.188;5.598;2023-08-12T11:05:06;12.23;;;3.13;;
19137;SDS011;68178;52.188;5.598;2023-08-12T11:07:34;5.10;;;2.33;;
19137;SDS011;68178;52.188;5.598;2023-08-12T11:10:10;5.50;;;2.47;;
19137;SDS011;68178;52.188;5.598;2023-08-12T11:12:40;8.20;;;2.50;;
19137;SDS011;68178;52.188;5.598;2023-08-12T11:15:34;3.50;;;2.00;;
19137;SDS011;68178;52.188;5.598;2023-08-12T11:20:30;9.30;;;2.90;;
19137;SDS011;68178;52.188;5.598;2023-08-12T11:22:57;6.30;;;2.13;;
19137;SDS011;68178;52.188;5.598;2023-08-12T11:25:24;4.82;;;2.03;;
19137;SDS011;68178;52.188;5.598;2023-08-12T11:27:50;5.38;;;1.90;;
19137;SDS011;68178;52.188;5.598;2023-08-12T11:30:17;7.57;;;2.38;;
19137;SDS011;68178;52.188;5.598;2023-08-12T11:32:45;8.00;;;2.63;;
19137;SDS011;68178;52.188;5.598;2023-08-12T11:35:12;4.65;;;2.30;;
19137;SDS011;68178;52.188;5.598;2023-08-12T11:37:40;4.43;;;2.17;;
19137;SDS011;68178;52.188;5.598;2023-08-12T11:40:08;4.70;;;2.15;;
19137;SDS011;68178;52.188;5.598;2023-08-12T11:42:35;6.47;;;2.38;;
19137;SDS011;68178;52.188;5.598;2023-08-12T11:45:02;4.68;;;1.83;;
19137;SDS011;68178;52.188;5.598;2023-08-12T11:47:29;7.50;;;2.95;;
19137;SDS011;68178;52.188;5.598;2023-08-12T11:49:54;7.15;;;2.72;;
19137;SDS011;68178;52.188;5.598;2023-08-12T11:52:20;11.27;;;2.85;;
19137;SDS011;68178;52.188;5.598;2023-08-12T11:54:46;8.25;;;2.70;;
19137;SDS011;68178;52.188;5.598;2023-08-12T11:57:13;9.65;;;2.45;;
19137;SDS011;68178;52.188;5.598;2023-08-12T11:59:38;8.18;;;2.47;;
19137;SDS011;68178;52.188;5.598;2023-08-12T12:02:04;4.93;;;1.63;;
19137;SDS011;68178;52.188;5.598;2023-08-12T12:04:30;7.85;;;2.22;;
19137;SDS011;68178;52.188;5.598;2023-08-12T12:06:56;7.53;;;2.85;;
19137;SDS011;68178;52.188;5.598;2023-08-12T12:09:22;5.95;;;2.08;;
19137;SDS011;68178;52.188;5.598;2023-08-12T12:11:51;7.55;;;2.45;;
19137;SDS011;68178;52.188;5.598;2023-08-12T12:14:18;5.22;;;1.83;;
19137;SDS011;68178;52.188;5.598;2023-08-12T12:16:44;5.78;;;1.90;;
19137;SDS011;68178;52.188;5.598;2023-08-12T12:19:21;5.18;;;1.70;;
19137;SDS011;68178;52.188;5.598;2023-08-12T12:21:48;3.78;;;1.65;;
19137;SDS011;68178;52.188;5.598;2023-08-12T12:24:15;6.13;;;1.70;;
19137;SDS011;68178;52.188;5.598;2023-08-12T12:26:41;8.13;;;2.05;;
19137;SDS011;68178;52.188;5.598;2023-08-12T12:29:07;3.80;;;1.90;;
19137;SDS011;68178;52.188;5.598;2023-08-12T12:31:33;4.07;;;1.83;;
19137;SDS011;68178;52.188;5.598;2023-08-12T12:34:03;6.90;;;2.00;;
19137;SDS011;68178;52.188;5.598;2023-08-12T12:36:36;5.38;;;1.95;;
19137;SDS011;68178;52.188;5.598;2023-08-12T12:39:03;6.93;;;2.20;;
19137;SDS011;68178;52.188;5.598;2023-08-12T12:41:29;5.13;;;2.17;;
19137;SDS011;68178;52.188;5.598;2023-08-12T12:43:55;7.60;;;1.88;;
19137;SDS011;68178;52.188;5.598;2023-08-12T12:46:21;5.32;;;1.95;;
19137;SDS011;68178;52.188;5.598;2023-08-12T12:48:47;5.85;;;2.28;;
19137;SDS011;68178;52.188;5.598;2023-08-12T12:51:12;5.57;;;1.75;;
19137;SDS011;68178;52.188;5.598;2023-08-12T12:53:38;5.00;;;1.90;;
19137;SDS011;68178;52.188;5.598;2023-08-12T12:56:04;7.30;;;2.17;;
19137;SDS011;68178;52.188;5.598;2023-08-12T12:58:31;8.10;;;2.78;;
19137;SDS011;68178;52.188;5.598;2023-08-12T13:01:00;7.45;;;1.60;;
19137;SDS011;68178;52.188;5.598;2023-08-12T13:03:26;5.93;;;2.20;;
19137;SDS011;68178;52.188;5.598;2023-08-12T13:05:52;6.57;;;1.85;;
19137;SDS011;68178;52.188;5.598;2023-08-12T13:08:18;8.85;;;2.00;;
19137;SDS011;68178;52.188;5.598;2023-08-12T13:10:44;4.43;;;1.65;;
19137;SDS011;68178;52.188;5.598;2023-08-12T13:13:09;5.97;;;1.80;;
19137;SDS011;68178;52.188;5.598;2023-08-12T13:15:35;4.22;;;1.77;;
19137;SDS011;68178;52.188;5.598;2023-08-12T13:18:02;7.50;;;2.30;;
19137;SDS011;68178;52.188;5.598;2023-08-12T13:20:28;9.98;;;2.25;;
19137;SDS011;68178;52.188;5.598;2023-08-12T13:22:53;3.67;;;1.80;;
19137;SDS011;68178;52.188;5.598;2023-08-12T13:25:19;5.93;;;2.20;;
19137;SDS011;68178;52.188;5.598;2023-08-12T13:27:44;8.65;;;2.83;;
19137;SDS011;68178;52.188;5.598;2023-08-12T13:30:10;6.85;;;2.30;;
19137;SDS011;68178;52.188;5.598;2023-08-12T13:32:36;4.65;;;2.10;;
19137;SDS011;68178;52.188;5.598;2023-08-12T13:35:02;6.20;;;2.22;;
19137;SDS011;68178;52.188;5.598;2023-08-12T13:37:28;4.53;;;2.10;;
19137;SDS011;68178;52.188;5.598;2023-08-12T13:39:54;9.02;;;2.22;;
19137;SDS011;68178;52.188;5.598;2023-08-12T13:42:19;8.30;;;2.58;;
19137;SDS011;68178;52.188;5.598;2023-08-12T13:44:45;7.97;;;2.35;;
19137;SDS011;68178;52.188;5.598;2023-08-12T13:47:10;10.63;;;2.67;;
19137;SDS011;68178;52.188;5.598;2023-08-12T13:49:36;9.73;;;2.33;;
19137;SDS011;68178;52.188;5.598;2023-08-12T13:52:02;7.95;;;2.25;;
19137;SDS011;68178;52.188;5.598;2023-08-12T13:54:27;7.05;;;2.28;;
19137;SDS011;68178;52.188;5.598;2023-08-12T13:56:53;12.05;;;2.55;;
19137;SDS011;68178;52.188;5.598;2023-08-12T13:59:18;7.00;;;2.22;;
19137;SDS011;68178;52.188;5.598;2023-08-12T14:01:45;9.77;;;2.72;;
19137;SDS011;68178;52.188;5.598;2023-08-12T14:04:10;5.50;;;2.08;;
19137;SDS011;68178;52.188;5.598;2023-08-12T14:06:36;6.40;;;2.47;;
19137;SDS011;68178;52.188;5.598;2023-08-12T14:09:01;8.90;;;2.42;;
19137;SDS011;68178;52.188;5.598;2023-08-12T14:11:27;7.97;;;2.35;;
19137;SDS011;68178;52.188;5.598;2023-08-12T14:13:53;8.88;;;2.50;;
19137;SDS011;68178;52.188;5.598;2023-08-12T14:16:18;8.18;;;2.42;;
19137;SDS011;68178;52.188;5.598;2023-08-12T14:18:44;9.98;;;2.75;;
19137;SDS011;68178;52.188;5.598;2023-08-12T14:21:10;8.27;;;2.65;;
19137;SDS011;68178;52.188;5.598;2023-08-12T14:23:35;5.55;;;2.40;;
19137;SDS011;68178;52.188;5.598;2023-08-12T14:26:01;9.68;;;2.42;;
19137;SDS011;68178;52.188;5.598;2023-08-12T14:28:27;7.50;;;2.45;;
19137;SDS011;68178;52.188;5.598;2023-08-12T14:30:53;7.97;;;2.40;;
19137;SDS011;68178;52.188;5.598;2023-08-12T14:33:19;8.55;;;2.22;;
19137;SDS011;68178;52.188;5.598;2023-08-12T14:35:44;9.20;;;1.90;;
19137;SDS011;68178;52.188;5.598;2023-08-12T14:38:10;5.55;;;2.00;;
19137;SDS011;68178;52.188;5.598;2023-08-12T14:40:37;5.65;;;1.88;;
19137;SDS011;68178;52.188;5.598;2023-08-12T14:43:03;6.05;;;2.90;;
19137;SDS011;68178;52.188;5.598;2023-08-12T14:45:29;6.10;;;2.80;;